createdAt,value
2023-01-17T04:35:07.238Z,3.66
2023-01-17T04:37:34.119Z,3.63
2023-01-17T04:40:00.933Z,3.63
2023-01-17T04:42:27.826Z,3.63
2023-01-17T04:44:54.723Z,3.65
2023-01-17T04:47:21.556Z,3.67
2023-01-17T04:49:48.655Z,3.68
2023-01-17T04:52:18.670Z,3.65
2023-01-17T04:54:46.426Z,3.61
2023-01-17T04:57:13.321Z,3.57
2023-01-17T04:59:40.241Z,3.56
2023-01-17T05:02:07.155Z,3.49
2023-01-17T05:04:34.198Z,3.40
2023-01-17T05:07:01.194Z,3.39
2023-01-17T05:09:28.044Z,3.41
2023-01-17T05:11:55.914Z,3.39
2023-01-17T05:14:26.362Z,3.38
2023-01-17T05:16:56.790Z,3.39
2023-01-17T05:19:24.361Z,3.37
2023-01-17T05:21:51.219Z,3.32
2023-01-17T05:24:18.908Z,3.30
2023-01-17T05:26:46.301Z,3.28
2023-01-17T05:29:13.064Z,3.27
2023-01-17T05:31:39.901Z,3.28
2023-01-17T05:34:07.766Z,3.32
2023-01-17T05:36:34.639Z,3.36
2023-01-17T05:39:01.699Z,3.37
2023-01-17T05:41:28.512Z,3.40
2023-01-17T05:43:55.341Z,3.42
2023-01-17T05:46:22.273Z,3.40
2023-01-17T05:48:49.143Z,3.41
2023-01-17T05:51:16.063Z,3.37
2023-01-17T05:53:42.905Z,3.35
2023-01-17T05:56:09.802Z,3.35
2023-01-17T05:58:36.632Z,3.33
2023-01-17T06:01:03.493Z,3.33
2023-01-17T06:03:30.432Z,3.36
2023-01-17T06:05:57.201Z,3.41
2023-01-17T06:08:23.948Z,3.42
2023-01-17T06:10:50.970Z,3.42
2023-01-17T06:13:22.014Z,3.43
2023-01-17T06:15:49.066Z,3.45
2023-01-17T06:18:16.818Z,3.50
2023-01-17T06:20:43.740Z,3.52
2023-01-17T06:23:12.144Z,3.52
2023-01-17T06:25:45.945Z,3.51
2023-01-17T06:28:17.620Z,3.51
2023-01-17T06:30:44.765Z,3.51
2023-01-17T06:33:12.084Z,3.54
2023-01-17T06:35:41.013Z,3.58
2023-01-17T06:38:07.857Z,3.58
2023-01-17T06:40:34.803Z,3.60
2023-01-17T06:43:05.293Z,3.62
2023-01-17T06:45:33.339Z,3.61
2023-01-17T06:48:01.035Z,3.61
2023-01-17T06:50:28.114Z,3.64
2023-01-17T06:52:56.509Z,3.68
2023-01-17T06:55:23.841Z,3.69
2023-01-17T06:57:50.769Z,3.70
2023-01-17T07:00:17.846Z,3.67
2023-01-17T07:02:47.944Z,3.66
2023-01-17T07:05:16.547Z,3.65
2023-01-17T07:07:46.556Z,3.67
2023-01-17T07:10:14.329Z,3.65
2023-01-17T07:12:41.463Z,3.67
2023-01-17T07:15:09.221Z,3.67
2023-01-17T07:17:35.964Z,3.67
2023-01-17T07:20:02.908Z,3.66
2023-01-17T07:22:29.850Z,3.65
2023-01-17T07:24:58.905Z,3.67
2023-01-17T07:27:27.797Z,3.68
2023-01-17T07:29:54.664Z,3.69
2023-01-17T07:32:21.632Z,3.70
2023-01-17T07:34:48.564Z,3.74
2023-01-17T07:37:15.628Z,3.79
2023-01-17T07:39:42.722Z,3.82
2023-01-17T07:42:09.836Z,3.84
2023-01-17T07:44:45.562Z,3.86
2023-01-17T07:47:14.867Z,3.85
2023-01-17T07:49:42.223Z,3.85
2023-01-17T07:52:09.748Z,3.88
2023-01-17T07:54:38.667Z,3.88
2023-01-17T07:57:06.506Z,3.90
2023-01-17T07:59:34.719Z,3.92
2023-01-17T08:02:01.754Z,3.95
2023-01-17T08:04:34.846Z,3.98
2023-01-17T08:07:01.872Z,3.98
2023-01-17T08:09:28.852Z,3.99
2023-01-17T08:11:55.801Z,3.95
2023-01-17T14:15:30.202Z,3.65
2023-01-17T14:18:08.389Z,3.62
2023-01-17T14:20:47.451Z,3.62
2023-01-17T14:23:22.314Z,3.64
2023-01-17T14:25:49.505Z,3.66
2023-01-17T14:28:21.835Z,3.67
2023-01-17T14:30:54.367Z,3.71
2023-01-17T14:33:26.687Z,3.76
2023-01-17T14:35:58.676Z,3.80
2023-01-17T14:38:30.246Z,3.87
2023-01-17T14:41:13.431Z,3.92
2023-01-17T14:43:42.259Z,3.94
2023-01-17T14:46:34.461Z,3.95
2023-01-17T14:49:06.270Z,3.99
2023-01-17T14:51:36.807Z,4.02
2023-01-17T14:54:13.784Z,4.04
2023-01-17T14:56:41.200Z,4.10
2023-01-17T14:59:22.253Z,4.19
2023-01-17T15:02:07.700Z,4.24
2023-01-17T15:04:39.960Z,4.28
2023-01-17T15:07:09.662Z,4.34
2023-01-17T15:09:39.275Z,4.35
2023-01-17T15:12:09.116Z,4.38
2023-01-17T15:14:38.446Z,4.37
2023-01-17T15:17:18.748Z,4.35
2023-01-17T15:19:50.101Z,4.35
2023-01-17T15:22:17.637Z,4.36
2023-01-17T15:24:49.612Z,4.36
2023-01-17T15:27:18.855Z,4.41
2023-01-17T15:29:45.852Z,4.44
2023-01-17T15:32:20.715Z,4.46
2023-01-17T15:34:48.496Z,4.48
2023-01-17T15:37:36.100Z,4.52
2023-01-17T15:40:23.137Z,4.61
2023-01-17T15:42:56.714Z,4.63
2023-01-17T15:45:28.134Z,4.60
2023-01-17T15:47:56.293Z,4.62
2023-01-17T15:50:31.143Z,4.63
2023-01-17T15:53:05.890Z,4.66
2023-01-17T15:55:37.313Z,4.72
2023-01-17T15:58:05.424Z,4.73
2023-01-17T16:00:39.300Z,4.70
2023-01-17T16:03:21.783Z,4.71
2023-01-17T16:05:49.301Z,4.75
2023-01-17T16:08:16.280Z,4.78
2023-01-17T16:10:45.158Z,4.81
2023-01-17T22:20:25.033Z,5.38
2023-01-17T22:22:52.044Z,5.37
2023-01-17T22:25:19.931Z,5.40
2023-01-17T22:27:46.877Z,5.43
2023-01-17T22:30:14.381Z,5.48
2023-01-17T22:32:41.308Z,5.54
2023-01-17T22:35:09.382Z,5.60
2023-01-17T22:37:36.162Z,5.68
2023-01-17T22:40:05.160Z,5.75
2023-01-17T22:42:35.131Z,5.82
2023-01-17T22:45:02.228Z,5.88
2023-01-17T22:47:29.393Z,5.93
2023-01-17T22:49:56.277Z,5.97
2023-01-17T22:52:23.138Z,6.03
2023-01-17T22:54:50.679Z,6.04
2023-01-17T22:57:17.862Z,6.07
2023-01-17T22:59:44.651Z,6.12
2023-01-17T23:02:11.605Z,6.11
2023-01-17T23:04:38.504Z,6.14
2023-01-17T23:07:05.252Z,6.17
2023-01-17T23:09:32.167Z,6.18
2023-01-17T23:11:59.075Z,6.23
2023-01-17T23:14:53.987Z,6.22
2023-01-17T23:17:39.822Z,6.17
2023-01-17T23:20:08.667Z,6.09
2023-01-17T23:22:35.454Z,6.01
2023-01-17T23:25:07.302Z,5.96
2023-01-17T23:28:03.462Z,6.00
2023-01-17T23:30:38.021Z,6.10
2023-01-17T23:33:05.797Z,6.19
2023-01-17T23:35:34.099Z,6.25
2023-01-17T23:38:19.357Z,6.31
2023-01-17T23:41:04.772Z,6.37
2023-01-17T23:43:32.135Z,6.38
2023-01-17T23:45:58.984Z,6.38
2023-01-17T23:48:28.765Z,6.43
2023-01-17T23:51:00.028Z,6.50
2023-01-17T23:53:27.395Z,6.52
2023-01-17T23:55:55.717Z,6.54
2023-01-17T23:58:26.608Z,6.54
